Time;durP1;ratioP1;P1;durP2;ratioP2;P2;SDS_P1;SDS_P2;PMS_P1;PMS_P2;Temp;Humidity;BMP_temperature;BMP_pressure;BME280_temperature;BME280_humidity;BME280_pressure;Samples;Min_cycle;Max_cycle;Signal;HPM_P1;HPM_P2
2023/06/30 00:00:59;;;;;;;4.43;3.70;;;17.40;99.90;;;17.68;64.81;95065.50;4986296;28;20544;-59
2023/06/30 00:03:26;;;;;;;3.80;3.10;;;17.30;99.90;;;17.65;64.65;95072.00;4986063;28;20466;-71
2023/06/30 00:05:53;;;;;;;3.53;3.33;;;17.30;99.90;;;17.63;65.13;95073.16;4990580;28;20474;-72
2023/06/30 00:08:21;;;;;;;4.77;4.23;;;17.30;99.90;;;17.60;65.11;95077.03;4986977;28;20469;-71
2023/06/30 00:10:49;;;;;;;6.30;5.70;;;17.30;99.90;;;17.58;65.24;95075.53;4986456;28;20486;-59
2023/06/30 00:13:18;;;;;;;6.67;5.87;;;17.20;99.90;;;17.54;64.83;95078.56;4986000;28;20459;-59
2023/06/30 00:15:45;;;;;;;6.07;5.63;;;17.20;99.90;;;17.54;64.73;95083.06;4988921;28;20474;-73
2023/06/30 00:18:12;;;;;;;5.10;4.67;;;17.20;99.90;;;17.51;64.85;95080.75;4990588;28;21048;-73
2023/06/30 00:20:39;;;;;;;6.57;4.70;;;17.20;99.90;;;17.49;65.15;95080.06;4991867;28;20485;-60
2023/06/30 00:23:10;;;;;;;6.20;4.00;;;17.10;99.90;;;17.48;65.13;95076.59;4994848;28;20462;-71
2023/06/30 00:25:37;;;;;;;4.63;4.33;;;17.10;99.90;;;17.47;65.19;95080.25;4989986;28;20550;-71
2023/06/30 00:28:05;;;;;;;5.60;4.40;;;17.10;99.90;;;17.47;65.12;95074.13;4990163;28;21053;-60
2023/06/30 00:30:34;;;;;;;9.80;3.93;;;17.10;99.90;;;17.45;64.88;95082.28;4988347;28;20474;-61
2023/06/30 00:33:01;;;;;;;5.70;5.10;;;17.10;99.90;;;17.44;65.27;95075.28;4989897;28;20450;-72
2023/06/30 00:35:28;;;;;;;4.37;3.97;;;17.10;99.90;;;17.43;65.58;95078.97;4989354;28;20498;-60
2023/06/30 00:37:55;;;;;;;3.93;3.73;;;17.10;99.90;;;17.44;65.41;95077.13;4990850;28;20497;-72
2023/06/30 00:40:22;;;;;;;4.20;3.90;;;17.10;99.90;;;17.42;65.00;95074.66;4991411;28;20498;-73
2023/06/30 00:42:50;;;;;;;4.70;4.30;;;17.10;99.90;;;17.41;65.47;95077.47;4993485;28;20864;-59
2023/06/30 00:45:17;;;;;;;7.60;4.60;;;17.00;99.90;;;17.41;65.50;95085.47;4989594;28;20466;-72
2023/06/30 00:47:46;;;;;;;6.30;4.63;;;17.00;99.90;;;17.38;65.14;95082.16;4990462;28;20450;-59
2023/06/30 00:50:13;;;;;;;4.30;4.00;;;17.00;99.90;;;17.38;64.92;95076.84;4989168;28;21034;-73
2023/06/30 00:52:42;;;;;;;8.03;4.40;;;17.00;99.90;;;17.38;65.22;95078.66;4991095;28;20541;-72
2023/06/30 00:55:10;;;;;;;4.60;4.30;;;17.00;99.90;;;17.37;65.01;95079.69;4989796;28;20529;-72
2023/06/30 00:57:37;;;;;;;4.43;4.13;;;17.00;99.90;;;17.35;65.07;95077.19;4994406;28;20974;-72
2023/06/30 01:00:10;;;;;;;5.10;4.80;;;17.00;99.90;;;17.32;65.22;95068.72;4989651;28;20490;-73
2023/06/30 01:02:38;;;;;;;4.70;4.40;;;17.00;99.90;;;17.32;65.29;95072.25;4989767;28;20451;-58
2023/06/30 01:05:10;;;;;;;4.67;4.30;;;17.00;99.90;;;17.31;65.37;95077.72;4985315;28;21032;-60
2023/06/30 01:07:40;;;;;;;5.23;4.83;;;16.90;99.90;;;17.31;65.29;95075.06;4989462;28;20451;-72
2023/06/30 01:10:13;;;;;;;3.87;3.57;;;17.00;99.90;;;17.29;65.56;95077.06;4991817;28;20482;-58
2023/06/30 01:12:40;;;;;;;4.73;4.33;;;16.90;99.90;;;17.28;65.22;95076.25;4989295;28;20469;-59
2023/06/30 01:15:08;;;;;;;5.70;4.83;;;16.90;99.90;;;17.27;65.66;95077.22;4990726;28;21062;-72
2023/06/30 01:17:40;;;;;;;8.47;6.00;;;16.90;99.90;;;17.26;65.78;95072.94;4990368;28;20494;-60
2023/06/30 01:20:11;;;;;;;4.13;3.83;;;16.90;99.90;;;17.25;65.38;95076.59;4988849;28;20489;-72
2023/06/30 01:22:44;;;;;;;4.07;3.80;;;16.90;99.90;;;17.24;65.88;95063.47;4989060;28;20478;-58
2023/06/30 01:25:13;;;;;;;4.37;3.67;;;16.90;99.90;;;17.21;65.24;95062.00;4988958;28;20470;-58
2023/06/30 01:27:40;;;;;;;4.20;3.90;;;16.90;99.90;;;17.19;65.37;95066.66;4988527;28;20554;-72
2023/06/30 01:30:09;;;;;;;4.43;4.13;;;16.80;99.90;;;17.17;65.70;95061.53;4990023;28;20482;-73
2023/06/30 01:32:36;;;;;;;5.20;4.40;;;16.80;99.90;;;17.16;65.76;95062.50;4989417;28;20462;-59
2023/06/30 01:35:04;;;;;;;7.63;4.57;;;16.80;99.90;;;17.12;65.59;95055.09;4988549;28;21026;-72
2023/06/30 01:37:33;;;;;;;4.20;4.00;;;16.80;99.90;;;17.07;65.59;95050.31;4989327;28;20975;-60
2023/06/30 01:40:01;;;;;;;4.63;3.90;;;16.70;99.90;;;17.05;65.72;95049.63;4986925;28;20947;-58
2023/06/30 01:42:28;;;;;;;4.83;4.30;;;16.70;99.90;;;17.03;65.64;95049.00;4989141;28;20463;-71
2023/06/30 01:44:55;;;;;;;5.10;4.30;;;16.70;99.90;;;17.02;66.22;95053.50;4990884;28;20482;-59
2023/06/30 01:47:23;;;;;;;4.97;4.57;;;16.70;99.90;;;17.01;66.39;95049.16;4988271;28;20455;-58
2023/06/30 01:49:50;;;;;;;5.20;3.90;;;16.70;99.90;;;17.00;65.89;95049.34;4989123;28;20545;-59
2023/06/30 01:52:17;;;;;;;15.63;4.40;;;16.70;99.90;;;16.99;66.29;95051.19;4989346;28;20450;-72
2023/06/30 01:54:46;;;;;;;4.80;4.40;;;16.60;99.90;;;16.98;66.30;95051.34;4989399;28;20560;-72
2023/06/30 01:57:13;;;;;;;4.80;4.37;;;16.60;99.90;;;16.94;65.96;95050.03;4990441;28;20999;-72
2023/06/30 01:59:40;;;;;;;4.80;4.50;;;16.60;99.90;;;16.89;66.02;95047.09;4990773;28;20489;-72
2023/06/30 02:02:08;;;;;;;4.97;4.37;;;16.60;99.90;;;16.87;66.57;95043.75;4988899;28;20473;-59
2023/06/30 02:04:35;;;;;;;10.90;5.10;;;16.60;99.90;;;16.85;66.65;95038.59;4988082;28;20849;-59
2023/06/30 02:07:02;;;;;;;5.10;4.80;;;16.50;99.90;;;16.85;66.57;95035.94;4989135;28;20545;-71
2023/06/30 02:09:30;;;;;;;6.33;5.27;;;16.50;99.90;;;16.81;66.34;95047.94;4988125;28;20475;-60
2023/06/30 02:11:58;;;;;;;6.13;4.43;;;16.50;99.90;;;16.79;66.51;95050.75;4988781;28;20466;-71
2023/06/30 02:14:25;;;;;;;7.93;4.60;;;16.50;99.90;;;16.79;66.58;95050.75;4987593;28;20528;-71
2023/06/30 02:16:53;;;;;;;6.67;5.20;;;16.50;99.90;;;16.78;66.58;95048.28;4988769;28;20461;-59
2023/06/30 02:19:23;;;;;;;8.27;5.13;;;16.40;99.90;;;16.77;66.53;95051.94;4986861;28;20478;-66
2023/06/30 02:21:51;;;;;;;6.30;5.07;;;16.50;99.90;;;16.76;66.66;95056.41;4987495;28;21159;-59
2023/06/30 02:24:18;;;;;;;6.93;5.33;;;16.40;99.90;;;16.69;66.46;95050.13;4987600;28;20509;-59
2023/06/30 02:26:46;;;;;;;9.43;6.03;;;16.40;99.90;;;16.65;66.46;95049.66;4984280;28;20442;-72
2023/06/30 02:29:14;;;;;;;6.00;4.60;;;16.40;99.90;;;16.60;66.48;95053.81;4987759;28;20521;-59
2023/06/30 02:31:42;;;;;;;5.40;5.00;;;16.30;99.90;;;16.54;66.29;95057.97;4987587;28;21021;-61
2023/06/30 02:34:09;;;;;;;6.37;5.40;;;16.30;99.90;;;16.48;66.62;95048.06;4987937;28;20486;-59
2023/06/30 02:36:36;;;;;;;5.07;4.67;;;16.20;99.90;;;16.44;66.72;95046.75;4987212;28;20451;-72
2023/06/30 02:39:04;;;;;;;5.60;5.20;;;16.10;99.90;;;16.40;67.33;95058.72;4989607;28;20509;-59
2023/06/30 02:41:31;;;;;;;5.00;4.70;;;16.10;99.90;;;16.37;66.75;95062.53;4987103;28;20489;-71
2023/06/30 02:43:58;;;;;;;5.60;5.20;;;16.10;99.90;;;16.31;67.14;95055.25;4988169;28;20835;-72
2023/06/30 02:46:27;;;;;;;5.23;4.83;;;16.00;99.90;;;16.25;67.29;95053.28;4988433;28;20454;-59
2023/06/30 02:48:54;;;;;;;8.13;5.10;;;15.90;99.90;;;16.23;67.30;95056.09;4988152;28;20461;-59
2023/06/30 02:51:21;;;;;;;10.53;5.50;;;15.90;99.90;;;16.19;67.53;95053.94;4984612;28;20556;-73
2023/06/30 02:53:49;;;;;;;7.50;5.50;;;15.90;99.90;;;16.16;67.53;95051.63;4987649;28;20458;-60
2023/06/30 02:56:17;;;;;;;6.03;5.53;;;15.90;99.90;;;16.12;67.49;95045.84;4990559;28;20509;-59
2023/06/30 02:58:44;;;;;;;6.40;5.70;;;15.80;99.90;;;16.08;68.01;95049.81;4987708;28;20514;-72
2023/06/30 03:01:11;;;;;;;6.73;5.93;;;15.80;99.90;;;16.07;68.33;95048.19;4987340;28;20586;-59
2023/06/30 03:03:42;;;;;;;6.47;5.57;;;15.80;99.90;;;16.08;68.40;95057.78;4987258;28;20806;-60
2023/06/30 03:06:09;;;;;;;8.40;6.10;;;15.80;99.90;;;16.10;68.60;95053.97;4987931;28;20536;-59
2023/06/30 03:08:37;;;;;;;5.53;5.00;;;15.80;99.90;;;16.13;68.60;95058.94;4987456;28;20883;-61
2023/06/30 03:11:04;;;;;;;5.40;5.00;;;15.80;99.90;;;16.16;68.38;95039.22;4987761;28;20483;-75
2023/06/30 03:13:31;;;;;;;13.63;5.43;;;15.80;99.90;;;16.18;68.70;95044.34;4988255;28;20494;-59
2023/06/30 03:15:59;;;;;;;5.47;5.00;;;15.90;99.90;;;16.21;68.56;95042.19;4987151;28;20502;-73
2023/06/30 03:18:26;;;;;;;11.90;6.13;;;15.90;99.90;;;16.23;68.12;95042.81;4987768;28;20466;-73
2023/06/30 03:20:55;;;;;;;6.53;4.90;;;15.90;99.90;;;16.23;68.33;95045.47;4986891;28;20502;-72
2023/06/30 03:23:22;;;;;;;5.33;5.03;;;15.90;99.90;;;16.26;68.56;95050.44;4983307;28;20466;-72
2023/06/30 03:25:49;;;;;;;6.53;5.80;;;15.90;99.90;;;16.28;68.31;95045.81;4986745;28;20509;-73
2023/06/30 03:28:16;;;;;;;6.07;5.30;;;16.00;99.90;;;16.29;67.92;95044.78;4986417;28;20450;-58
2023/06/30 03:30:44;;;;;;;6.20;5.80;;;16.00;99.90;;;16.30;68.18;95043.81;4989304;28;20541;-59
2023/06/30 03:33:11;;;;;;;7.07;5.60;;;16.00;99.90;;;16.31;68.49;95036.66;4988057;28;20982;-72
2023/06/30 03:35:38;;;;;;;5.50;5.10;;;16.00;99.90;;;16.33;68.05;95047.97;4986619;28;20502;-73
2023/06/30 03:38:07;;;;;;;5.83;5.23;;;16.00;99.90;;;16.33;68.08;95063.88;4986391;28;20987;-61
2023/06/30 03:40:34;;;;;;;6.93;5.40;;;16.00;99.90;;;16.34;67.88;95056.75;4985639;28;20486;-60
2023/06/30 03:43:01;;;;;;;6.50;5.53;;;16.00;99.90;;;16.32;67.83;95059.56;4987433;28;20466;-73
2023/06/30 03:45:30;;;;;;;13.10;4.90;;;16.00;99.90;;;16.31;68.25;95052.59;4986674;28;20482;-59
2023/06/30 03:47:57;;;;;;;5.23;4.80;;;16.00;99.90;;;16.32;68.28;95054.25;4986130;28;20533;-73
2023/06/30 03:50:24;;;;;;;12.37;5.50;;;16.00;99.90;;;16.35;68.34;95053.09;4988070;28;21041;-60
2023/06/30 03:52:51;;;;;;;5.07;4.73;;;16.00;99.90;;;16.38;68.23;95052.75;4991850;28;20528;-58
2023/06/30 03:55:20;;;;;;;8.67;5.37;;;16.00;99.90;;;16.40;68.34;95051.56;4990917;28;20501;-75
2023/06/30 03:57:47;;;;;;;6.30;5.60;;;16.10;99.90;;;16.43;67.92;95055.72;4991766;28;20471;-60
2023/06/30 04:00:16;;;;;;;8.20;5.40;;;16.10;99.90;;;16.43;67.83;95061.84;4992046;28;20490;-74
2023/06/30 04:02:43;;;;;;;7.17;5.27;;;16.10;99.90;;;16.45;68.02;95057.22;4990042;28;20463;-58
2023/06/30 04:05:10;;;;;;;7.10;5.10;;;16.10;99.90;;;16.48;68.16;95058.69;4988792;28;21014;-60
2023/06/30 04:07:37;;;;;;;6.03;4.87;;;16.10;99.90;;;16.49;68.11;95061.16;4988537;28;20459;-73
2023/06/30 04:10:05;;;;;;;5.60;4.97;;;16.20;99.90;;;16.53;67.94;95064.31;4989305;28;21095;-72
2023/06/30 04:12:34;;;;;;;5.43;4.93;;;16.20;99.90;;;16.58;67.81;95067.28;4986960;28;20454;-60
2023/06/30 04:15:03;;;;;;;6.50;4.93;;;16.20;99.90;;;16.60;67.45;95059.13;4991482;28;20516;-74
2023/06/30 04:17:30;;;;;;;5.13;4.73;;;16.20;99.90;;;16.63;67.70;95066.75;4990900;28;20463;-60
2023/06/30 04:19:58;;;;;;;5.67;5.17;;;16.30;99.90;;;16.66;67.46;95056.59;4986954;28;20478;-60
2023/06/30 04:22:25;;;;;;;6.83;6.10;;;16.30;99.90;;;16.68;67.54;95059.09;4988561;28;20545;-73
2023/06/30 04:24:52;;;;;;;9.50;4.93;;;16.40;99.90;;;16.70;67.66;95057.13;4988817;28;21021;-75
2023/06/30 04:27:20;;;;;;;6.40;5.80;;;16.40;99.90;;;16.73;67.38;95063.88;4990723;28;21002;-58
2023/06/30 04:29:48;;;;;;;8.27;5.70;;;16.40;99.90;;;16.75;67.26;95060.06;4990118;28;20548;-61
2023/06/30 04:32:15;;;;;;;5.33;4.43;;;16.40;99.90;;;16.75;67.30;95054.75;4987889;28;20896;-58
2023/06/30 04:34:44;;;;;;;10.97;5.97;;;16.40;99.90;;;16.76;67.36;95052.91;4989578;28;20477;-74
2023/06/30 04:37:12;;;;;;;10.10;7.53;;;16.40;99.90;;;16.76;67.00;95053.75;4990186;28;20470;-75
2023/06/30 04:39:39;;;;;;;14.93;6.40;;;16.40;99.90;;;16.76;67.21;95048.44;4989521;28;20524;-58
2023/06/30 04:42:07;;;;;;;6.20;5.80;;;16.40;99.90;;;16.79;67.29;95048.09;4989337;28;20477;-58
2023/06/30 04:44:35;;;;;;;6.10;5.57;;;16.50;99.90;;;16.81;67.26;95045.28;4986585;28;20565;-60
2023/06/30 04:47:04;;;;;;;14.90;5.60;;;16.50;99.90;;;16.84;67.24;95052.91;4990919;28;20542;-69
2023/06/30 04:49:31;;;;;;;7.23;5.83;;;16.50;99.90;;;16.87;66.89;95049.06;4990142;28;20489;-59
2023/06/30 04:51:58;;;;;;;7.57;5.70;;;16.50;99.90;;;16.91;67.10;95055.72;4985845;28;20458;-59
2023/06/30 04:54:26;;;;;;;12.63;6.73;;;16.50;99.90;;;16.94;67.33;95047.38;4990178;28;21473;-61
2023/06/30 04:56:53;;;;;;;6.90;6.30;;;16.60;99.90;;;17.05;67.46;95054.94;4989126;28;20502;-60
2023/06/30 04:59:20;;;;;;;18.00;5.87;;;16.70;99.90;;;17.11;66.99;95059.56;4989358;28;20474;-58
2023/06/30 05:01:47;;;;;;;8.30;5.90;;;16.70;99.90;;;17.18;66.98;95059.69;4988282;28;20459;-59
2023/06/30 05:04:16;;;;;;;15.87;7.47;;;16.80;99.90;;;17.24;67.11;95053.66;4989517;28;20517;-70
2023/06/30 05:06:43;;;;;;;7.40;5.80;;;16.80;99.90;;;17.32;66.98;95053.63;4991517;28;20842;-74
2023/06/30 05:09:11;;;;;;;21.10;9.43;;;16.90;99.90;;;17.42;67.20;95060.53;4989105;28;20543;-73
2023/06/30 05:11:38;;;;;;;8.67;7.20;;;17.00;99.90;;;17.48;66.58;95055.31;4989543;28;20513;-60
2023/06/30 05:14:06;;;;;;;14.93;7.23;;;17.10;99.90;;;17.52;66.33;95056.63;4988674;28;20478;-60
2023/06/30 05:16:33;;;;;;;10.40;6.30;;;17.10;99.90;;;17.60;66.13;95061.06;4985886;28;20485;-59
2023/06/30 05:19:01;;;;;;;7.90;6.67;;;17.20;99.90;;;17.68;66.21;95062.84;4989260;28;20490;-59
2023/06/30 05:21:29;;;;;;;9.63;6.30;;;17.30;99.90;;;17.76;65.94;95054.78;4989913;28;20447;-73
2023/06/30 05:23:57;;;;;;;12.57;5.90;;;17.40;99.90;;;17.87;66.44;95053.50;4989390;28;20457;-72
2023/06/30 05:26:24;;;;;;;8.10;5.97;;;17.40;99.90;;;17.98;65.61;95050.44;4989068;28;20509;-59
2023/06/30 05:28:51;;;;;;;8.27;5.87;;;17.50;99.90;;;18.09;65.82;95047.34;4989056;28;20458;-74
2023/06/30 05:31:19;;;;;;;8.90;6.10;;;17.70;99.90;;;18.26;65.27;95057.81;4989443;28;20483;-74
2023/06/30 05:33:46;;;;;;;9.93;6.97;;;17.80;99.90;;;18.41;65.37;95063.16;4988798;28;20796;-60
2023/06/30 05:36:13;;;;;;;16.20;6.90;;;17.90;99.90;;;18.54;64.92;95055.31;4988389;28;21006;-59
2023/06/30 05:38:42;;;;;;;12.97;6.87;;;18.10;99.90;;;18.70;64.45;95059.66;4988763;28;20520;-60
2023/06/30 05:41:10;;;;;;;9.03;6.40;;;18.20;99.90;;;18.86;64.39;95063.97;4986423;28;20482;-59
2023/06/30 05:43:37;;;;;;;9.83;6.47;;;18.30;99.90;;;19.02;63.74;95060.25;4989182;28;20461;-74
2023/06/30 05:46:05;;;;;;;7.57;6.13;;;18.50;99.90;;;19.17;63.69;95065.56;4988932;28;20470;-73
2023/06/30 05:48:32;;;;;;;25.53;7.33;;;18.60;99.90;;;19.30;62.91;95064.88;4989309;28;20463;-74
2023/06/30 05:50:59;;;;;;;9.20;6.40;;;18.80;99.90;;;19.40;62.73;95064.59;4988952;28;20478;-58
2023/06/30 05:53:26;;;;;;;7.90;7.03;;;18.90;99.90;;;19.53;63.18;95065.53;4994520;28;20462;-73
2023/06/30 05:55:56;;;;;;;10.20;6.30;;;19.00;99.90;;;19.70;62.98;95073.25;4989158;28;20501;-75
2023/06/30 05:58:24;;;;;;;13.53;7.03;;;19.10;99.90;;;19.87;62.42;95076.53;4989680;28;20554;-59
2023/06/30 06:00:52;;;;;;;12.30;7.97;;;19.30;99.90;;;20.04;61.64;95072.56;4988400;28;20509;-73
2023/06/30 06:03:19;;;;;;;15.63;8.30;;;19.50;99.90;;;20.19;61.39;95069.78;4987168;28;20458;-73
2023/06/30 06:05:46;;;;;;;29.43;8.63;;;19.60;99.90;;;20.31;61.15;95071.91;4987598;28;20474;-74
2023/06/30 06:08:14;;;;;;;21.37;8.80;;;19.80;99.90;;;20.36;60.85;95070.31;4988968;28;20463;-73
2023/06/30 06:10:41;;;;;;;15.90;7.70;;;19.80;99.90;;;20.42;60.30;95077.56;4988274;28;20483;-72
2023/06/30 06:13:09;;;;;;;14.93;8.07;;;19.90;99.90;;;20.49;60.20;95071.44;4988330;28;20463;-60
2023/06/30 06:15:37;;;;;;;8.87;7.00;;;19.90;99.90;;;20.62;60.11;95079.53;4987475;28;21085;-60
2023/06/30 06:18:04;;;;;;;15.07;6.47;;;20.10;99.90;;;20.72;59.42;95074.66;4987802;28;20455;-73
2023/06/30 06:20:31;;;;;;;12.10;6.83;;;20.10;99.90;;;20.84;59.97;95063.44;4988960;28;20486;-59
2023/06/30 06:22:59;;;;;;;9.30;6.13;;;20.30;99.90;;;20.97;59.43;95060.78;4987047;28;20904;-59
2023/06/30 06:25:26;;;;;;;14.80;6.70;;;20.40;99.90;;;21.09;58.90;95061.88;4988136;28;20970;-59
2023/06/30 06:27:53;;;;;;;25.17;7.43;;;20.50;99.60;;;21.27;58.98;95061.31;4987845;28;20451;-58
2023/06/30 06:30:22;;;;;;;9.83;6.80;;;20.70;99.60;;;21.42;58.88;95063.81;4983744;28;20529;-58
2023/06/30 06:32:49;;;;;;;14.07;7.17;;;20.80;99.70;;;21.54;58.61;95060.59;4987053;28;20473;-59
2023/06/30 06:35:16;;;;;;;18.97;7.90;;;21.00;99.80;;;21.69;58.40;95061.22;4990741;28;21100;-59
2023/06/30 06:37:44;;;;;;;10.53;7.50;;;21.10;99.60;;;21.87;58.75;95062.47;4989095;28;20951;-73
2023/06/30 06:40:12;;;;;;;17.93;6.87;;;21.20;99.40;;;22.06;57.92;95058.97;4990011;28;20851;-58
2023/06/30 06:42:39;;;;;;;13.50;6.50;;;21.40;99.10;;;22.23;57.36;95053.16;4988131;28;20959;-59
2023/06/30 06:45:07;;;;;;;11.83;7.30;;;21.60;98.70;;;22.33;56.60;95048.25;4987807;28;20481;-60
2023/06/30 06:48:20;;;;;;;18.43;7.53;;;21.70;98.30;;;22.43;56.41;95056.66;4989241;28;20451;-74
2023/06/30 06:50:47;;;;;;;26.13;7.40;;;21.80;98.00;;;22.56;57.21;95061.19;4985965;28;20526;-74
2023/06/30 06:53:20;;;;;;;15.00;7.53;;;21.90;98.10;;;22.68;56.43;95054.16;4989413;28;20516;-59
2023/06/30 06:55:48;;;;;;;11.10;6.53;;;22.10;97.60;;;22.78;55.77;95061.75;4987070;28;20597;-59
2023/06/30 06:58:16;;;;;;;9.40;5.73;;;22.10;97.50;;;22.92;55.91;95059.84;4991036;28;20528;-75
2023/06/30 07:00:44;;;;;;;9.60;6.23;;;22.30;97.40;;;23.07;55.86;95060.41;4987713;28;20494;-61
2023/06/30 07:03:11;;;;;;;24.70;6.50;;;22.40;97.00;;;23.23;54.54;95056.44;4988009;28;20536;-74
2023/06/30 07:05:40;;;;;;;22.37;6.53;;;22.60;96.10;;;23.38;54.96;95060.72;4997063;28;21022;-74
2023/06/30 07:08:07;;;;;;;11.30;6.60;;;22.70;96.20;;;23.51;54.64;95052.56;4989326;28;20464;-58
2023/06/30 07:10:35;;;;;;;9.20;5.83;;;22.90;96.10;;;23.67;54.61;95053.94;4987318;28;21042;-73
2023/06/30 07:13:02;;;;;;;7.43;5.50;;;23.00;96.00;;;23.80;53.44;95045.75;4986935;28;20560;-73
2023/06/30 07:15:29;;;;;;;8.20;5.53;;;23.20;95.30;;;23.96;53.78;95041.72;4989369;28;20557;-75
2023/06/30 07:17:57;;;;;;;16.40;5.37;;;23.30;95.40;;;24.12;53.41;95035.00;4985540;28;20572;-59
2023/06/30 07:20:24;;;;;;;8.70;5.60;;;23.50;95.20;;;24.29;52.74;95037.09;4992524;28;20509;-74
2023/06/30 07:22:54;;;;;;;9.90;5.40;;;23.60;94.70;;;24.43;52.79;95032.41;4990266;28;20560;-59
2023/06/30 07:25:21;;;;;;;8.67;4.60;;;23.80;94.30;;;24.58;52.63;95035.59;4987362;28;20458;-59
2023/06/30 07:27:52;;;;;;;11.17;5.70;;;23.90;94.20;;;24.74;52.30;95031.53;4986693;28;20457;-60
2023/06/30 07:30:19;;;;;;;4.50;4.20;;;24.10;94.10;;;24.85;52.20;95032.63;4987498;28;20544;-74
2023/06/30 07:32:47;;;;;;;5.90;5.30;;;24.20;93.70;;;24.99;51.51;95030.59;4986253;28;20469;-74
2023/06/30 07:35:14;;;;;;;6.53;4.93;;;24.30;93.80;;;25.09;51.52;95027.38;4991085;28;20477;-76
2023/06/30 07:37:42;;;;;;;4.07;3.87;;;24.40;93.20;;;25.19;49.59;95035.72;4991144;28;20973;-60
2023/06/30 07:40:11;;;;;;;7.07;4.50;;;24.50;91.60;;;25.29;49.67;95027.94;4983913;28;20489;-61
2023/06/30 07:42:39;;;;;;;7.23;5.30;;;24.70;91.50;;;25.40;49.99;95031.75;4986588;28;20466;-59
2023/06/30 07:45:09;;;;;;;11.93;5.43;;;24.70;91.90;;;25.51;50.53;95038.22;4986377;28;20524;-59
2023/06/30 07:47:36;;;;;;;8.23;4.60;;;24.90;92.10;;;25.56;49.33;95033.78;4988759;28;20536;-74
2023/06/30 07:50:09;;;;;;;5.57;4.83;;;24.90;91.20;;;25.65;49.50;95036.97;4987240;28;20478;-75
2023/06/30 07:52:37;;;;;;;4.90;4.50;;;25.00;91.20;;;25.79;49.19;95034.06;4986379;28;20454;-59
2023/06/30 07:55:06;;;;;;;5.73;4.37;;;25.10;90.60;;;25.89;48.89;95031.66;4987366;28;20508;-73
2023/06/30 07:57:34;;;;;;;4.70;4.40;;;25.20;90.70;;;25.85;48.58;95030.47;4982819;28;20502;-59
2023/06/30 08:00:02;;;;;;;6.67;4.63;;;25.20;90.10;;;25.80;48.46;95030.34;4986821;28;20480;-73
2023/06/30 08:02:29;;;;;;;6.83;3.57;;;25.20;89.90;;;25.86;48.45;95029.41;4984652;28;20450;-75
2023/06/30 08:04:56;;;;;;;4.83;4.33;;;25.20;88.80;;;25.97;47.79;95023.22;4990120;28;20501;-57
2023/06/30 08:07:23;;;;;;;4.03;3.53;;;25.30;88.30;;;26.10;48.13;95025.72;4988584;28;20454;-59
2023/06/30 08:09:51;;;;;;;4.73;3.40;;;25.40;88.50;;;26.26;47.59;95026.09;4986456;28;20543;-75
2023/06/30 08:12:18;;;;;;;3.60;3.33;;;25.60;87.70;;;26.42;46.98;95035.34;4987308;28;20466;-75
2023/06/30 08:14:48;;;;;;;6.07;3.43;;;25.70;86.60;;;26.46;46.45;95020.31;4987671;28;20470;-75
2023/06/30 08:17:15;;;;;;;4.30;2.37;;;25.70;84.40;;;26.46;45.71;95023.00;4987458;28;20568;-76
2023/06/30 08:19:43;;;;;;;8.63;4.10;;;25.80;82.20;;;26.53;45.56;95014.81;4986574;28;20469;-59
2023/06/30 08:22:13;;;;;;;6.80;3.67;;;25.80;82.20;;;26.62;45.42;95008.81;4986224;28;20501;-59
2023/06/30 08:24:41;;;;;;;4.53;2.60;;;25.90;81.60;;;26.75;45.26;95005.06;4986714;28;20481;-73
2023/06/30 08:27:09;;;;;;;5.97;3.83;;;26.00;81.50;;;26.93;45.49;95000.56;4985415;28;20468;-75
2023/06/30 08:29:36;;;;;;;11.40;3.30;;;26.20;81.70;;;27.05;44.64;94997.81;4985132;28;20489;-76
2023/06/30 08:32:06;;;;;;;8.97;3.30;;;26.30;80.50;;;27.09;44.10;94994.41;4985626;28;20465;-60
2023/06/30 08:34:34;;;;;;;3.73;2.57;;;26.40;78.80;;;27.00;43.71;94991.28;4985016;28;20478;-59
2023/06/30 08:37:01;;;;;;;4.73;2.80;;;26.40;77.20;;;26.94;43.86;94994.09;4988038;28;20485;-74
2023/06/30 08:39:28;;;;;;;3.63;3.00;;;26.30;76.50;;;26.94;43.45;94994.09;4990145;28;20478;-76
2023/06/30 08:41:56;;;;;;;4.27;3.30;;;26.30;76.50;;;26.98;43.10;94987.16;4992675;28;20508;-75
2023/06/30 08:44:25;;;;;;;5.97;3.13;;;26.30;75.40;;;27.04;42.95;94982.69;4988267;28;20474;-60
2023/06/30 08:46:52;;;;;;;4.93;4.30;;;26.40;74.40;;;27.04;42.71;94980.81;4989740;28;20500;-75
2023/06/30 08:49:23;;;;;;;5.13;4.20;;;26.40;74.10;;;26.96;42.28;94975.78;4990053;28;20478;-59
2023/06/30 08:51:52;;;;;;;8.13;3.70;;;26.30;73.70;;;26.98;43.14;94970.97;4987042;28;20450;-75
2023/06/30 08:54:19;;;;;;;5.93;3.33;;;26.30;74.00;;;27.06;42.97;94970.56;4991035;28;20477;-60
2023/06/30 08:56:47;;;;;;;2.90;2.70;;;26.40;74.40;;;27.24;43.21;94968.75;4995921;28;20538;-75
2023/06/30 08:59:14;;;;;;;3.73;3.40;;;26.50;74.80;;;27.47;42.55;94971.38;4993483;28;20524;-58
2023/06/30 09:01:42;;;;;;;8.60;3.60;;;26.70;74.30;;;27.71;42.81;94968.50;4989642;28;20457;-75
2023/06/30 09:04:09;;;;;;;4.63;3.50;;;27.00;74.30;;;27.85;42.82;94977.94;4989109;28;20540;-59
2023/06/30 09:06:39;;;;;;;3.63;3.10;;;27.10;73.50;;;27.97;41.87;94968.97;4990048;28;20516;-60
2023/06/30 09:09:09;;;;;;;6.23;3.00;;;27.30;73.10;;;28.14;41.39;94964.34;4989799;28;20835;-61
2023/06/30 09:11:37;;;;;;;4.60;2.90;;;27.40;71.00;;;28.28;41.12;94972.13;4989779;28;20508;-58
2023/06/30 09:14:04;;;;;;;4.17;2.87;;;27.60;70.20;;;28.43;40.86;94964.22;4995446;28;20462;-76
2023/06/30 09:16:31;;;;;;;10.67;3.30;;;27.70;69.60;;;28.57;40.59;94962.78;4990610;28;20550;-75
2023/06/30 09:18:59;;;;;;;5.47;2.90;;;27.90;69.30;;;28.71;40.63;94963.28;4989948;28;20856;-58
2023/06/30 09:21:26;;;;;;;3.60;3.40;;;28.00;67.70;;;28.84;40.68;94962.06;4991058;28;20569;-75
2023/06/30 09:23:56;;;;;;;4.00;3.30;;;28.20;68.50;;;28.93;40.21;94967.84;4991200;28;20207;-61
2023/06/30 09:26:23;;;;;;;3.70;3.50;;;28.20;68.60;;;29.01;40.51;94961.97;4989248;28;20462;-76
2023/06/30 09:28:54;;;;;;;8.60;3.90;;;28.30;67.60;;;29.10;39.44;94963.19;4991390;28;20464;-62
2023/06/30 09:31:29;;;;;;;9.77;4.20;;;28.40;66.80;;;29.20;39.32;94962.47;4988425;28;20203;-63
2023/06/30 09:34:10;;;;;;;4.53;3.53;;;28.50;66.90;;;29.29;39.02;94960.97;4987745;28;20204;-60
2023/06/30 09:36:38;;;;;;;12.17;4.70;;;28.60;65.30;;;29.38;39.67;94955.09;4987773;28;20257;-74
2023/06/30 09:39:09;;;;;;;3.70;3.37;;;28.70;66.10;;;29.46;39.61;94957.34;4989767;28;20210;-60
2023/06/30 09:41:36;;;;;;;9.10;4.37;;;28.80;65.50;;;29.51;39.12;94949.25;4984678;28;20203;-62
2023/06/30 09:44:05;;;;;;;4.50;4.10;;;28.90;64.60;;;29.56;39.24;94946.59;4986919;28;20947;-73
2023/06/30 09:46:32;;;;;;;5.53;4.10;;;28.90;64.70;;;29.62;39.06;94944.72;4987545;28;20556;-61
2023/06/30 09:49:01;;;;;;;4.90;4.07;;;28.90;64.90;;;29.67;39.61;94950.22;4985416;28;20281;-77
2023/06/30 09:51:30;;;;;;;5.47;3.67;;;29.00;65.00;;;29.71;39.31;94945.09;4988744;28;20775;-60
2023/06/30 09:53:58;;;;;;;14.07;8.43;;;29.10;65.40;;;29.81;40.39;94947.91;4987895;28;20196;-59
2023/06/30 09:56:28;;;;;;;14.00;7.17;;;29.10;66.10;;;29.85;39.66;94939.00;4989192;28;20238;-60
2023/06/30 09:58:57;;;;;;;11.60;7.60;;;29.20;65.40;;;29.88;39.77;94940.38;4988307;28;20206;-62
2023/06/30 10:01:24;;;;;;;17.47;9.80;;;29.20;65.80;;;29.92;40.24;94938.78;4997187;28;20222;-76
2023/06/30 10:03:54;;;;;;;15.23;6.20;;;29.30;66.20;;;29.95;40.29;94938.25;4989568;28;20207;-62
2023/06/30 10:06:22;;;;;;;6.30;4.47;;;29.30;65.40;;;29.97;40.24;94936.09;4991190;28;20199;-60
2023/06/30 10:08:50;;;;;;;10.53;6.60;;;29.40;65.60;;;29.95;39.71;94932.84;4988382;28;20210;-74
2023/06/30 10:11:18;;;;;;;12.33;6.27;;;29.30;64.80;;;29.92;40.07;94921.69;4987650;28;20338;-61
2023/06/30 10:13:48;;;;;;;12.90;7.55;;;29.30;64.60;;;29.92;39.58;94922.50;4986348;28;20816;-61
2023/06/30 10:16:15;;;;;;;9.03;4.60;;;29.30;64.90;;;29.86;39.97;94909.97;4986678;28;20230;-63
2023/06/30 10:18:45;;;;;;;8.80;4.53;;;29.30;64.90;;;29.77;39.93;94909.59;4985153;28;20480;-74
2023/06/30 10:21:13;;;;;;;5.20;4.70;;;29.10;63.90;;;29.65;39.46;94906.25;4986663;28;20738;-61